sensor_id;sensor_type;location;lat;lon;timestamp;P1;durP1;ratioP1;P2;durP2;ratioP2
54699;SDS011;40599;53.132;6.090;2023-07-13T00:04:15;11.93;;;3.05;;
54699;SDS011;40599;53.132;6.090;2023-07-13T00:06:42;14.27;;;2.63;;
54699;SDS011;40599;53.132;6.090;2023-07-13T00:09:13;9.17;;;2.27;;
54699;SDS011;40599;53.132;6.090;2023-07-13T00:11:39;13.33;;;1.97;;
54699;SDS011;40599;53.132;6.090;2023-07-13T00:14:06;9.38;;;1.65;;
54699;SDS011;40599;53.132;6.090;2023-07-13T00:16:36;7.27;;;1.77;;
54699;SDS011;40599;53.132;6.090;2023-07-13T00:19:02;10.67;;;1.60;;
54699;SDS011;40599;53.132;6.090;2023-07-13T00:21:29;8.57;;;1.70;;
54699;SDS011;40599;53.132;6.090;2023-07-13T00:23:55;9.07;;;1.63;;
54699;SDS011;40599;53.132;6.090;2023-07-13T00:26:21;7.70;;;1.90;;
54699;SDS011;40599;53.132;6.090;2023-07-13T00:28:47;3.50;;;1.25;;
54699;SDS011;40599;53.132;6.090;2023-07-13T00:31:13;6.07;;;1.20;;
54699;SDS011;40599;53.132;6.090;2023-07-13T00:33:40;6.50;;;1.52;;
54699;SDS011;40599;53.132;6.090;2023-07-13T00:38:33;5.10;;;1.40;;
54699;SDS011;40599;53.132;6.090;2023-07-13T00:40:59;9.25;;;1.63;;
54699;SDS011;40599;53.132;6.090;2023-07-13T00:43:26;4.93;;;1.30;;
54699;SDS011;40599;53.132;6.090;2023-07-13T00:48:24;11.07;;;1.80;;
54699;SDS011;40599;53.132;6.090;2023-07-13T00:50:51;8.40;;;1.83;;
54699;SDS011;40599;53.132;6.090;2023-07-13T00:53:19;5.67;;;1.80;;
54699;SDS011;40599;53.132;6.090;2023-07-13T00:58:11;5.93;;;1.57;;
54699;SDS011;40599;53.132;6.090;2023-07-13T01:00:37;10.52;;;1.70;;
54699;SDS011;40599;53.132;6.090;2023-07-13T01:03:04;7.00;;;1.80;;
54699;SDS011;40599;53.132;6.090;2023-07-13T01:05:32;4.97;;;1.60;;
54699;SDS011;40599;53.132;6.090;2023-07-13T01:07:58;7.90;;;1.60;;
54699;SDS011;40599;53.132;6.090;2023-07-13T01:10:25;10.80;;;2.33;;
54699;SDS011;40599;53.132;6.090;2023-07-13T01:12:52;6.35;;;1.50;;
54699;SDS011;40599;53.132;6.090;2023-07-13T01:15:37;3.97;;;1.35;;
54699;SDS011;40599;53.132;6.090;2023-07-13T01:18:05;6.53;;;1.50;;
54699;SDS011;40599;53.132;6.090;2023-07-13T01:20:32;5.03;;;1.30;;
54699;SDS011;40599;53.132;6.090;2023-07-13T01:23:05;5.03;;;1.57;;
54699;SDS011;40599;53.132;6.090;2023-07-13T01:25:31;8.60;;;1.40;;
54699;SDS011;40599;53.132;6.090;2023-07-13T01:27:58;6.65;;;1.23;;
54699;SDS011;40599;53.132;6.090;2023-07-13T01:30:24;9.95;;;1.65;;
54699;SDS011;40599;53.132;6.090;2023-07-13T01:32:50;5.45;;;1.30;;
54699;SDS011;40599;53.132;6.090;2023-07-13T01:35:16;4.20;;;1.20;;
54699;SDS011;40599;53.132;6.090;2023-07-13T01:37:42;5.32;;;1.42;;
54699;SDS011;40599;53.132;6.090;2023-07-13T01:40:10;5.60;;;1.57;;
54699;SDS011;40599;53.132;6.090;2023-07-13T01:42:37;5.40;;;1.48;;
54699;SDS011;40599;53.132;6.090;2023-07-13T01:45:03;4.22;;;1.15;;
54699;SDS011;40599;53.132;6.090;2023-07-13T01:47:29;4.38;;;1.25;;
54699;SDS011;40599;53.132;6.090;2023-07-13T01:49:56;6.22;;;1.35;;
54699;SDS011;40599;53.132;6.090;2023-07-13T01:52:22;6.45;;;1.42;;
54699;SDS011;40599;53.132;6.090;2023-07-13T01:54:49;4.63;;;1.27;;
54699;SDS011;40599;53.132;6.090;2023-07-13T01:57:15;7.07;;;1.60;;
54699;SDS011;40599;53.132;6.090;2023-07-13T01:59:41;5.95;;;1.30;;
54699;SDS011;40599;53.132;6.090;2023-07-13T02:02:08;5.25;;;1.45;;
54699;SDS011;40599;53.132;6.090;2023-07-13T02:04:34;7.60;;;1.55;;
54699;SDS011;40599;53.132;6.090;2023-07-13T02:09:27;10.13;;;1.80;;
54699;SDS011;40599;53.132;6.090;2023-07-13T02:11:53;10.40;;;1.92;;
54699;SDS011;40599;53.132;6.090;2023-07-13T02:14:19;6.50;;;1.60;;
54699;SDS011;40599;53.132;6.090;2023-07-13T02:16:45;8.15;;;1.88;;
54699;SDS011;40599;53.132;6.090;2023-07-13T02:19:13;9.27;;;2.00;;
54699;SDS011;40599;53.132;6.090;2023-07-13T02:21:39;6.00;;;1.65;;
54699;SDS011;40599;53.132;6.090;2023-07-13T02:24:06;12.25;;;2.10;;
54699;SDS011;40599;53.132;6.090;2023-07-13T02:26:32;7.00;;;2.05;;
54699;SDS011;40599;53.132;6.090;2023-07-13T02:28:58;5.97;;;1.83;;
54699;SDS011;40599;53.132;6.090;2023-07-13T02:31:24;6.28;;;1.92;;
54699;SDS011;40599;53.132;6.090;2023-07-13T02:33:50;9.13;;;1.90;;
54699;SDS011;40599;53.132;6.090;2023-07-13T02:36:17;6.97;;;1.90;;
54699;SDS011;40599;53.132;6.090;2023-07-13T02:38:43;8.48;;;2.08;;
54699;SDS011;40599;53.132;6.090;2023-07-13T02:41:10;7.15;;;2.50;;
54699;SDS011;40599;53.132;6.090;2023-07-13T02:43:37;17.95;;;2.78;;
54699;SDS011;40599;53.132;6.090;2023-07-13T02:46:03;6.83;;;2.60;;
54699;SDS011;40599;53.132;6.090;2023-07-13T02:48:41;6.20;;;2.13;;
54699;SDS011;40599;53.132;6.090;2023-07-13T02:51:07;9.93;;;2.17;;
54699;SDS011;40599;53.132;6.090;2023-07-13T02:53:34;14.15;;;3.83;;
54699;SDS011;40599;53.132;6.090;2023-07-13T02:56:01;11.43;;;2.80;;
54699;SDS011;40599;53.132;6.090;2023-07-13T02:58:27;10.73;;;2.97;;
54699;SDS011;40599;53.132;6.090;2023-07-13T03:00:53;17.45;;;2.50;;
54699;SDS011;40599;53.132;6.090;2023-07-13T03:03:19;7.10;;;2.40;;
54699;SDS011;40599;53.132;6.090;2023-07-13T03:05:45;12.63;;;2.90;;
54699;SDS011;40599;53.132;6.090;2023-07-13T03:08:15;15.10;;;3.53;;
54699;SDS011;40599;53.132;6.090;2023-07-13T03:10:43;11.70;;;3.37;;
54699;SDS011;40599;53.132;6.090;2023-07-13T03:13:09;12.05;;;2.90;;
54699;SDS011;40599;53.132;6.090;2023-07-13T03:15:35;20.10;;;4.85;;
54699;SDS011;40599;53.132;6.090;2023-07-13T03:18:01;12.32;;;2.97;;
54699;SDS011;40599;53.132;6.090;2023-07-13T03:20:27;20.65;;;4.10;;
54699;SDS011;40599;53.132;6.090;2023-07-13T03:22:54;13.52;;;3.70;;
54699;SDS011;40599;53.132;6.090;2023-07-13T03:25:20;17.63;;;3.40;;
54699;SDS011;40599;53.132;6.090;2023-07-13T03:27:46;20.20;;;4.18;;
54699;SDS011;40599;53.132;6.090;2023-07-13T03:30:12;19.95;;;4.03;;
54699;SDS011;40599;53.132;6.090;2023-07-13T03:32:38;17.00;;;3.40;;
54699;SDS011;40599;53.132;6.090;2023-07-13T03:35:05;14.63;;;3.67;;
54699;SDS011;40599;53.132;6.090;2023-07-13T03:37:31;17.77;;;3.72;;
54699;SDS011;40599;53.132;6.090;2023-07-13T03:39:57;13.90;;;3.90;;
54699;SDS011;40599;53.132;6.090;2023-07-13T03:42:23;19.92;;;3.97;;
54699;SDS011;40599;53.132;6.090;2023-07-13T03:44:50;20.23;;;4.17;;
54699;SDS011;40599;53.132;6.090;2023-07-13T03:47:17;20.92;;;3.85;;
54699;SDS011;40599;53.132;6.090;2023-07-13T03:49:44;12.43;;;3.72;;
54699;SDS011;40599;53.132;6.090;2023-07-13T03:52:11;20.53;;;4.27;;
54699;SDS011;40599;53.132;6.090;2023-07-13T03:54:37;16.55;;;3.58;;
54699;SDS011;40599;53.132;6.090;2023-07-13T03:57:03;16.75;;;4.15;;
54699;SDS011;40599;53.132;6.090;2023-07-13T03:59:29;23.00;;;4.85;;
54699;SDS011;40599;53.132;6.090;2023-07-13T04:01:56;22.92;;;4.63;;
54699;SDS011;40599;53.132;6.090;2023-07-13T04:04:22;16.58;;;3.60;;
54699;SDS011;40599;53.132;6.090;2023-07-13T04:06:48;16.17;;;3.20;;
54699;SDS011;40599;53.132;6.090;2023-07-13T04:09:14;19.25;;;3.80;;
54699;SDS011;40599;53.132;6.090;2023-07-13T04:11:41;13.85;;;3.45;;
54699;SDS011;40599;53.132;6.090;2023-07-13T04:14:07;17.35;;;3.63;;
54699;SDS011;40599;53.132;6.090;2023-07-13T04:16:33;18.25;;;4.07;;
54699;SDS011;40599;53.132;6.090;2023-07-13T04:18:59;16.83;;;3.53;;
54699;SDS011;40599;53.132;6.090;2023-07-13T04:21:27;19.35;;;3.20;;
54699;SDS011;40599;53.132;6.090;2023-07-13T04:23:53;14.67;;;2.93;;
54699;SDS011;40599;53.132;6.090;2023-07-13T04:26:20;13.43;;;3.35;;
54699;SDS011;40599;53.132;6.090;2023-07-13T04:28:48;13.73;;;3.43;;
54699;SDS011;40599;53.132;6.090;2023-07-13T04:31:14;14.02;;;3.08;;
54699;SDS011;40599;53.132;6.090;2023-07-13T04:33:40;13.88;;;3.42;;
54699;SDS011;40599;53.132;6.090;2023-07-13T04:36:08;17.90;;;3.47;;
54699;SDS011;40599;53.132;6.090;2023-07-13T04:38:35;21.30;;;3.40;;
54699;SDS011;40599;53.132;6.090;2023-07-13T04:41:03;10.40;;;3.03;;
54699;SDS011;40599;53.132;6.090;2023-07-13T04:43:30;12.13;;;3.17;;
54699;SDS011;40599;53.132;6.090;2023-07-13T04:45:56;14.20;;;3.40;;
54699;SDS011;40599;53.132;6.090;2023-07-13T04:48:23;15.07;;;2.97;;
54699;SDS011;40599;53.132;6.090;2023-07-13T04:50:56;10.13;;;2.70;;
54699;SDS011;40599;53.132;6.090;2023-07-13T04:53:22;11.10;;;3.73;;
54699;SDS011;40599;53.132;6.090;2023-07-13T04:55:49;9.63;;;3.03;;
54699;SDS011;40599;53.132;6.090;2023-07-13T04:58:15;13.07;;;2.72;;
54699;SDS011;40599;53.132;6.090;2023-07-13T05:00:41;10.85;;;2.80;;
54699;SDS011;40599;53.132;6.090;2023-07-13T05:03:07;11.75;;;3.08;;
54699;SDS011;40599;53.132;6.090;2023-07-13T05:05:33;12.43;;;3.55;;
54699;SDS011;40599;53.132;6.090;2023-07-13T05:08:00;17.38;;;3.00;;
54699;SDS011;40599;53.132;6.090;2023-07-13T05:10:26;10.00;;;2.80;;
54699;SDS011;40599;53.132;6.090;2023-07-13T05:12:52;14.25;;;3.22;;
54699;SDS011;40599;53.132;6.090;2023-07-13T05:15:20;12.68;;;3.17;;
54699;SDS011;40599;53.132;6.090;2023-07-13T05:17:47;10.43;;;3.30;;
54699;SDS011;40599;53.132;6.090;2023-07-13T05:20:13;9.25;;;3.45;;
54699;SDS011;40599;53.132;6.090;2023-07-13T05:22:39;11.75;;;3.05;;
54699;SDS011;40599;53.132;6.090;2023-07-13T05:25:06;12.52;;;2.88;;
54699;SDS011;40599;53.132;6.090;2023-07-13T05:27:33;16.57;;;3.10;;
54699;SDS011;40599;53.132;6.090;2023-07-13T05:29:59;10.73;;;3.60;;
54699;SDS011;40599;53.132;6.090;2023-07-13T05:32:26;13.43;;;3.47;;
54699;SDS011;40599;53.132;6.090;2023-07-13T05:34:52;17.55;;;3.22;;
54699;SDS011;40599;53.132;6.090;2023-07-13T05:37:18;11.98;;;2.85;;
54699;SDS011;40599;53.132;6.090;2023-07-13T05:39:44;12.98;;;2.65;;
54699;SDS011;40599;53.132;6.090;2023-07-13T05:42:11;14.48;;;2.83;;
54699;SDS011;40599;53.132;6.090;2023-07-13T05:44:37;14.15;;;3.17;;
54699;SDS011;40599;53.132;6.090;2023-07-13T05:47:03;9.35;;;2.55;;
54699;SDS011;40599;53.132;6.090;2023-07-13T05:49:29;10.80;;;3.03;;
54699;SDS011;40599;53.132;6.090;2023-07-13T05:51:56;10.90;;;3.10;;
54699;SDS011;40599;53.132;6.090;2023-07-13T05:54:22;11.18;;;2.83;;
54699;SDS011;40599;53.132;6.090;2023-07-13T05:56:48;15.93;;;3.10;;
54699;SDS011;40599;53.132;6.090;2023-07-13T05:59:14;13.02;;;2.90;;
54699;SDS011;40599;53.132;6.090;2023-07-13T06:01:41;16.67;;;3.70;;
54699;SDS011;40599;53.132;6.090;2023-07-13T06:04:07;9.43;;;3.03;;
54699;SDS011;40599;53.132;6.090;2023-07-13T06:06:33;11.23;;;2.80;;
54699;SDS011;40599;53.132;6.090;2023-07-13T06:08:59;14.38;;;2.88;;
54699;SDS011;40599;53.132;6.090;2023-07-13T06:11:26;11.00;;;3.15;;
54699;SDS011;40599;53.132;6.090;2023-07-13T06:13:54;10.73;;;2.77;;
54699;SDS011;40599;53.132;6.090;2023-07-13T06:16:21;12.57;;;2.83;;
54699;SDS011;40599;53.132;6.090;2023-07-13T06:18:47;14.88;;;2.97;;
54699;SDS011;40599;53.132;6.090;2023-07-13T06:21:15;13.35;;;3.00;;
54699;SDS011;40599;53.132;6.090;2023-07-13T06:23:42;17.60;;;4.17;;
54699;SDS011;40599;53.132;6.090;2023-07-13T06:26:08;11.73;;;2.75;;
54699;SDS011;40599;53.132;6.090;2023-07-13T06:28:35;13.45;;;2.60;;
54699;SDS011;40599;53.132;6.090;2023-07-13T06:31:01;10.90;;;2.50;;
54699;SDS011;40599;53.132;6.090;2023-07-13T06:33:28;13.35;;;2.28;;
54699;SDS011;40599;53.132;6.090;2023-07-13T06:35:54;13.05;;;3.35;;
54699;SDS011;40599;53.132;6.090;2023-07-13T06:38:20;6.47;;;2.25;;
54699;SDS011;40599;53.132;6.090;2023-07-13T06:40:47;5.75;;;1.98;;
54699;SDS011;40599;53.132;6.090;2023-07-13T06:43:13;5.50;;;1.85;;
54699;SDS011;40599;53.132;6.090;2023-07-13T06:45:44;9.50;;;2.30;;
54699;SDS011;40599;53.132;6.090;2023-07-13T06:48:12;7.70;;;2.50;;
54699;SDS011;40599;53.132;6.090;2023-07-13T06:50:38;11.68;;;2.67;;
54699;SDS011;40599;53.132;6.090;2023-07-13T06:53:04;11.20;;;3.38;;
54699;SDS011;40599;53.132;6.090;2023-07-13T06:55:30;10.07;;;2.75;;
54699;SDS011;40599;53.132;6.090;2023-07-13T06:57:57;9.20;;;2.67;;
54699;SDS011;40599;53.132;6.090;2023-07-13T07:00:23;14.88;;;3.13;;
54699;SDS011;40599;53.132;6.090;2023-07-13T07:02:49;12.15;;;2.63;;
54699;SDS011;40599;53.132;6.090;2023-07-13T07:05:15;13.45;;;3.20;;
54699;SDS011;40599;53.132;6.090;2023-07-13T07:07:42;13.82;;;3.35;;
54699;SDS011;40599;53.132;6.090;2023-07-13T07:10:08;9.93;;;2.83;;
54699;SDS011;40599;53.132;6.090;2023-07-13T07:12:34;9.27;;;2.42;;
54699;SDS011;40599;53.132;6.090;2023-07-13T07:15:00;13.48;;;3.40;;
54699;SDS011;40599;53.132;6.090;2023-07-13T07:17:26;10.60;;;2.58;;
54699;SDS011;40599;53.132;6.090;2023-07-13T07:19:53;8.55;;;2.00;;
54699;SDS011;40599;53.132;6.090;2023-07-13T07:22:19;8.23;;;2.35;;
54699;SDS011;40599;53.132;6.090;2023-07-13T07:24:46;9.37;;;2.30;;
54699;SDS011;40599;53.132;6.090;2023-07-13T07:27:12;8.68;;;1.90;;
54699;SDS011;40599;53.132;6.090;2023-07-13T07:29:38;9.40;;;2.65;;
54699;SDS011;40599;53.132;6.090;2023-07-13T07:32:04;10.30;;;2.33;;
54699;SDS011;40599;53.132;6.090;2023-07-13T07:34:31;8.15;;;2.70;;
54699;SDS011;40599;53.132;6.090;2023-07-13T07:37:00;9.40;;;2.53;;
54699;SDS011;40599;53.132;6.090;2023-07-13T07:39:27;7.33;;;3.07;;
54699;SDS011;40599;53.132;6.090;2023-07-13T07:41:53;9.68;;;3.42;;
54699;SDS011;40599;53.132;6.090;2023-07-13T07:44:19;11.38;;;2.47;;
54699;SDS011;40599;53.132;6.090;2023-07-13T07:46:45;15.52;;;3.00;;
54699;SDS011;40599;53.132;6.090;2023-07-13T07:49:11;9.70;;;2.95;;
54699;SDS011;40599;53.132;6.090;2023-07-13T07:51:38;6.97;;;2.20;;
54699;SDS011;40599;53.132;6.090;2023-07-13T07:54:04;11.10;;;2.30;;
54699;SDS011;40599;53.132;6.090;2023-07-13T07:58:57;8.17;;;2.50;;
54699;SDS011;40599;53.132;6.090;2023-07-13T08:01:23;7.88;;;2.25;;
54699;SDS011;40599;53.132;6.090;2023-07-13T08:03:49;10.20;;;1.90;;
54699;SDS011;40599;53.132;6.090;2023-07-13T08:06:15;5.15;;;2.05;;
54699;SDS011;40599;53.132;6.090;2023-07-13T08:08:44;6.40;;;2.10;;
54699;SDS011;40599;53.132;6.090;2023-07-13T08:11:10;8.10;;;2.00;;
54699;SDS011;40599;53.132;6.090;2023-07-13T08:13:36;10.50;;;2.20;;
54699;SDS011;40599;53.132;6.090;2023-07-13T08:16:06;7.88;;;2.00;;
54699;SDS011;40599;53.132;6.090;2023-07-13T08:18:32;10.10;;;2.07;;
54699;SDS011;40599;53.132;6.090;2023-07-13T08:21:02;8.35;;;2.40;;
54699;SDS011;40599;53.132;6.090;2023-07-13T08:23:28;10.77;;;2.63;;
54699;SDS011;40599;53.132;6.090;2023-07-13T08:25:54;9.38;;;2.20;;
54699;SDS011;40599;53.132;6.090;2023-07-13T08:28:22;14.80;;;2.10;;
54699;SDS011;40599;53.132;6.090;2023-07-13T08:30:48;6.68;;;2.60;;
54699;SDS011;40599;53.132;6.090;2023-07-13T08:33:18;6.72;;;2.20;;
54699;SDS011;40599;53.132;6.090;2023-07-13T08:35:47;7.37;;;2.40;;
54699;SDS011;40599;53.132;6.090;2023-07-13T08:38:14;9.20;;;2.23;;
54699;SDS011;40599;53.132;6.090;2023-07-13T08:40:40;6.57;;;2.13;;
54699;SDS011;40599;53.132;6.090;2023-07-13T08:43:08;11.43;;;3.08;;
54699;SDS011;40599;53.132;6.090;2023-07-13T08:50:57;9.67;;;1.90;;
54699;SDS011;40599;53.132;6.090;2023-07-13T08:53:24;8.47;;;2.20;;
54699;SDS011;40599;53.132;6.090;2023-07-13T08:55:56;8.90;;;2.50;;
54699;SDS011;40599;53.132;6.090;2023-07-13T08:58:23;9.83;;;1.80;;
54699;SDS011;40599;53.132;6.090;2023-07-13T09:03:46;3.90;;;1.70;;
54699;SDS011;40599;53.132;6.090;2023-07-13T09:06:14;3.87;;;1.80;;
54699;SDS011;40599;53.132;6.090;2023-07-13T09:08:50;4.60;;;1.90;;
54699;SDS011;40599;53.132;6.090;2023-07-13T09:16:23;4.97;;;1.53;;
54699;SDS011;40599;53.132;6.090;2023-07-13T09:18:51;5.40;;;1.43;;
54699;SDS011;40599;53.132;6.090;2023-07-13T09:21:21;6.13;;;1.80;;
54699;SDS011;40599;53.132;6.090;2023-07-13T09:23:47;5.40;;;1.50;;
54699;SDS011;40599;53.132;6.090;2023-07-13T09:26:18;5.10;;;1.30;;
54699;SDS011;40599;53.132;6.090;2023-07-13T09:28:49;6.77;;;1.77;;
54699;SDS011;40599;53.132;6.090;2023-07-13T09:31:26;3.10;;;1.20;;
54699;SDS011;40599;53.132;6.090;2023-07-13T09:33:59;4.20;;;1.20;;
54699;SDS011;40599;53.132;6.090;2023-07-13T09:36:26;4.03;;;1.25;;
54699;SDS011;40599;53.132;6.090;2023-07-13T09:41:46;3.07;;;1.10;;
54699;SDS011;40599;53.132;6.090;2023-07-13T09:44:16;4.07;;;1.33;;
54699;SDS011;40599;53.132;6.090;2023-07-13T09:46:46;7.03;;;1.50;;
54699;SDS011;40599;53.132;6.090;2023-07-13T09:49:16;5.10;;;1.33;;
54699;SDS011;40599;53.132;6.090;2023-07-13T09:51:42;4.85;;;1.40;;
54699;SDS011;40599;53.132;6.090;2023-07-13T09:54:23;3.53;;;1.37;;
54699;SDS011;40599;53.132;6.090;2023-07-13T09:56:56;4.47;;;1.40;;
54699;SDS011;40599;53.132;6.090;2023-07-13T09:59:24;5.83;;;1.27;;
54699;SDS011;40599;53.132;6.090;2023-07-13T10:01:50;6.17;;;1.40;;
54699;SDS011;40599;53.132;6.090;2023-07-13T10:04:18;5.63;;;1.40;;
54699;SDS011;40599;53.132;6.090;2023-07-13T10:06:44;3.47;;;1.40;;
54699;SDS011;40599;53.132;6.090;2023-07-13T10:11:39;2.90;;;1.17;;
54699;SDS011;40599;53.132;6.090;2023-07-13T10:14:10;5.33;;;1.43;;
54699;SDS011;40599;53.132;6.090;2023-07-13T10:16:37;9.27;;;1.73;;
54699;SDS011;40599;53.132;6.090;2023-07-13T10:19:05;3.17;;;1.25;;
54699;SDS011;40599;53.132;6.090;2023-07-13T10:21:38;7.00;;;1.50;;
54699;SDS011;40599;53.132;6.090;2023-07-13T10:24:18;5.93;;;1.87;;
54699;SDS011;40599;53.132;6.090;2023-07-13T10:29:30;5.43;;;1.30;;
54699;SDS011;40599;53.132;6.090;2023-07-13T10:32:00;3.93;;;1.00;;
54699;SDS011;40599;53.132;6.090;2023-07-13T10:34:26;6.30;;;1.60;;
54699;SDS011;40599;53.132;6.090;2023-07-13T10:36:52;4.80;;;1.30;;
54699;SDS011;40599;53.132;6.090;2023-07-13T10:39:21;6.18;;;1.83;;
54699;SDS011;40599;53.132;6.090;2023-07-13T10:41:53;7.37;;;1.60;;
54699;SDS011;40599;53.132;6.090;2023-07-13T10:44:27;5.30;;;1.77;;
54699;SDS011;40599;53.132;6.090;2023-07-13T10:47:01;4.40;;;1.40;;
54699;SDS011;40599;53.132;6.090;2023-07-13T10:49:28;5.70;;;1.30;;
54699;SDS011;40599;53.132;6.090;2023-07-13T10:51:56;6.17;;;1.37;;
54699;SDS011;40599;53.132;6.090;2023-07-13T10:54:26;6.28;;;1.45;;
54699;SDS011;40599;53.132;6.090;2023-07-13T10:57:06;9.57;;;1.60;;
54699;SDS011;40599;53.132;6.090;2023-07-13T10:59:34;7.30;;;1.73;;
54699;SDS011;40599;53.132;6.090;2023-07-13T11:04:39;6.77;;;1.77;;
54699;SDS011;40599;53.132;6.090;2023-07-13T11:07:25;7.32;;;1.88;;
54699;SDS011;40599;53.132;6.090;2023-07-13T11:09:56;6.53;;;1.70;;
54699;SDS011;40599;53.132;6.090;2023-07-13T11:19:54;3.47;;;1.25;;
54699;SDS011;40599;53.132;6.090;2023-07-13T11:22:24;6.57;;;1.55;;
54699;SDS011;40599;53.132;6.090;2023-07-13T11:24:58;4.77;;;1.67;;
54699;SDS011;40599;53.132;6.090;2023-07-13T11:27:36;6.63;;;1.40;;
54699;SDS011;40599;53.132;6.090;2023-07-13T11:32:50;3.00;;;1.20;;
54699;SDS011;40599;53.132;6.090;2023-07-13T11:35:18;5.83;;;1.63;;
54699;SDS011;40599;53.132;6.090;2023-07-13T11:37:48;4.57;;;1.60;;
54699;SDS011;40599;53.132;6.090;2023-07-13T11:40:14;4.40;;;1.40;;
54699;SDS011;40599;53.132;6.090;2023-07-13T11:42:40;5.27;;;1.73;;
54699;SDS011;40599;53.132;6.090;2023-07-13T11:45:28;6.50;;;1.98;;
54699;SDS011;40599;53.132;6.090;2023-07-13T11:47:53;5.00;;;1.67;;
54699;SDS011;40599;53.132;6.090;2023-07-13T11:50:25;5.03;;;1.50;;
54699;SDS011;40599;53.132;6.090;2023-07-13T11:52:52;5.13;;;1.50;;
54699;SDS011;40599;53.132;6.090;2023-07-13T11:55:20;5.33;;;1.77;;
54699;SDS011;40599;53.132;6.090;2023-07-13T11:57:57;5.73;;;1.70;;
54699;SDS011;40599;53.132;6.090;2023-07-13T12:00:25;7.00;;;1.50;;
54699;SDS011;40599;53.132;6.090;2023-07-13T12:02:53;6.50;;;1.53;;
54699;SDS011;40599;53.132;6.090;2023-07-13T12:05:20;4.10;;;1.70;;
54699;SDS011;40599;53.132;6.090;2023-07-13T12:10:20;5.17;;;1.23;;
54699;SDS011;40599;53.132;6.090;2023-07-13T12:12:53;5.83;;;1.50;;
54699;SDS011;40599;53.132;6.090;2023-07-13T12:15:20;9.23;;;1.87;;
54699;SDS011;40599;53.132;6.090;2023-07-13T12:17:47;8.40;;;1.60;;
54699;SDS011;40599;53.132;6.090;2023-07-13T12:20:47;6.53;;;1.27;;
54699;SDS011;40599;53.132;6.090;2023-07-13T12:23:07;7.13;;;1.80;;
54699;SDS011;40599;53.132;6.090;2023-07-13T12:25:41;6.03;;;1.87;;
54699;SDS011;40599;53.132;6.090;2023-07-13T12:46:02;7.07;;;1.93;;
54699;SDS011;40599;53.132;6.090;2023-07-13T12:48:29;7.80;;;1.83;;
54699;SDS011;40599;53.132;6.090;2023-07-13T12:53:22;5.27;;;1.23;;
54699;SDS011;40599;53.132;6.090;2023-07-13T12:55:49;6.50;;;1.60;;
54699;SDS011;40599;53.132;6.090;2023-07-13T12:58:18;5.90;;;1.70;;
54699;SDS011;40599;53.132;6.090;2023-07-13T13:00:47;9.63;;;1.97;;
54699;SDS011;40599;53.132;6.090;2023-07-13T13:05:46;6.93;;;1.53;;
54699;SDS011;40599;53.132;6.090;2023-07-13T13:08:15;6.07;;;1.50;;
54699;SDS011;40599;53.132;6.090;2023-07-13T13:10:41;7.63;;;1.70;;
54699;SDS011;40599;53.132;6.090;2023-07-13T13:13:07;9.75;;;1.85;;
54699;SDS011;40599;53.132;6.090;2023-07-13T13:15:33;9.20;;;1.73;;
54699;SDS011;40599;53.132;6.090;2023-07-13T13:18:01;5.77;;;1.50;;
54699;SDS011;40599;53.132;6.090;2023-07-13T13:20:27;2.95;;;1.42;;
54699;SDS011;40599;53.132;6.090;2023-07-13T13:22:53;5.47;;;1.83;;
54699;SDS011;40599;53.132;6.090;2023-07-13T13:25:20;6.20;;;1.73;;
54699;SDS011;40599;53.132;6.090;2023-07-13T13:27:47;8.03;;;1.70;;
54699;SDS011;40599;53.132;6.090;2023-07-13T13:30:15;6.53;;;1.77;;
54699;SDS011;40599;53.132;6.090;2023-07-13T13:32:42;4.90;;;1.60;;
54699;SDS011;40599;53.132;6.090;2023-07-13T13:35:18;8.70;;;1.80;;
54699;SDS011;40599;53.132;6.090;2023-07-13T13:37:46;4.93;;;1.48;;
54699;SDS011;40599;53.132;6.090;2023-07-13T13:40:17;5.73;;;1.77;;
54699;SDS011;40599;53.132;6.090;2023-07-13T13:42:43;8.50;;;1.80;;
54699;SDS011;40599;53.132;6.090;2023-07-13T13:45:10;4.28;;;1.40;;
54699;SDS011;40599;53.132;6.090;2023-07-13T13:47:37;5.73;;;2.10;;
54699;SDS011;40599;53.132;6.090;2023-07-13T13:50:14;6.53;;;2.10;;
54699;SDS011;40599;53.132;6.090;2023-07-13T13:52:41;5.10;;;1.70;;
54699;SDS011;40599;53.132;6.090;2023-07-13T13:55:11;8.20;;;1.97;;
54699;SDS011;40599;53.132;6.090;2023-07-13T13:57:37;7.60;;;1.90;;
54699;SDS011;40599;53.132;6.090;2023-07-13T14:00:04;5.60;;;1.63;;
54699;SDS011;40599;53.132;6.090;2023-07-13T14:05:01;8.60;;;2.10;;
54699;SDS011;40599;53.132;6.090;2023-07-13T14:07:28;12.80;;;2.37;;
54699;SDS011;40599;53.132;6.090;2023-07-13T14:09:56;8.80;;;2.27;;
54699;SDS011;40599;53.132;6.090;2023-07-13T14:12:23;7.10;;;2.33;;
54699;SDS011;40599;53.132;6.090;2023-07-13T14:14:54;8.00;;;2.00;;
54699;SDS011;40599;53.132;6.090;2023-07-13T14:17:21;8.80;;;2.37;;
54699;SDS011;40599;53.132;6.090;2023-07-13T14:19:49;9.93;;;2.03;;
54699;SDS011;40599;53.132;6.090;2023-07-13T14:22:19;8.50;;;2.00;;
54699;SDS011;40599;53.132;6.090;2023-07-13T14:24:46;11.97;;;2.47;;
54699;SDS011;40599;53.132;6.090;2023-07-13T14:27:12;14.68;;;2.03;;
54699;SDS011;40599;53.132;6.090;2023-07-13T14:32:09;10.13;;;2.42;;
54699;SDS011;40599;53.132;6.090;2023-07-13T14:34:35;6.80;;;2.03;;
54699;SDS011;40599;53.132;6.090;2023-07-13T14:37:02;8.18;;;2.17;;
54699;SDS011;40599;53.132;6.090;2023-07-13T14:39:29;7.13;;;1.70;;
54699;SDS011;40599;53.132;6.090;2023-07-13T14:44:24;7.80;;;1.77;;
54699;SDS011;40599;53.132;6.090;2023-07-13T14:46:50;7.47;;;1.57;;
54699;SDS011;40599;53.132;6.090;2023-07-13T14:51:49;7.13;;;1.93;;
54699;SDS011;40599;53.132;6.090;2023-07-13T14:54:15;3.95;;;1.70;;
54699;SDS011;40599;53.132;6.090;2023-07-13T14:56:42;7.07;;;2.05;;
54699;SDS011;40599;53.132;6.090;2023-07-13T14:59:08;4.85;;;1.90;;
54699;SDS011;40599;53.132;6.090;2023-07-13T15:01:34;13.50;;;2.58;;
54699;SDS011;40599;53.132;6.090;2023-07-13T15:04:01;10.73;;;2.47;;
54699;SDS011;40599;53.132;6.090;2023-07-13T15:06:28;7.33;;;2.20;;
54699;SDS011;40599;53.132;6.090;2023-07-13T15:08:54;7.28;;;2.03;;
54699;SDS011;40599;53.132;6.090;2023-07-13T15:11:21;6.40;;;2.23;;
54699;SDS011;40599;53.132;6.090;2023-07-13T15:13:47;11.40;;;2.15;;
54699;SDS011;40599;53.132;6.090;2023-07-13T15:16:15;11.07;;;1.95;;
54699;SDS011;40599;53.132;6.090;2023-07-13T15:18:42;13.73;;;2.63;;
54699;SDS011;40599;53.132;6.090;2023-07-13T15:23:34;9.17;;;2.47;;
54699;SDS011;40599;53.132;6.090;2023-07-13T15:26:01;10.23;;;2.75;;
54699;SDS011;40599;53.132;6.090;2023-07-13T15:28:28;10.10;;;2.37;;
54699;SDS011;40599;53.132;6.090;2023-07-13T15:30:54;8.88;;;2.40;;
54699;SDS011;40599;53.132;6.090;2023-07-13T15:33:27;8.85;;;2.40;;
54699;SDS011;40599;53.132;6.090;2023-07-13T15:35:54;8.00;;;2.20;;
54699;SDS011;40599;53.132;6.090;2023-07-13T15:38:25;9.60;;;2.23;;
54699;SDS011;40599;53.132;6.090;2023-07-13T15:40:51;11.60;;;2.67;;
54699;SDS011;40599;53.132;6.090;2023-07-13T15:43:18;9.23;;;2.50;;
54699;SDS011;40599;53.132;6.090;2023-07-13T15:48:21;9.20;;;2.53;;
54699;SDS011;40599;53.132;6.090;2023-07-13T15:50:49;5.85;;;2.22;;
54699;SDS011;40599;53.132;6.090;2023-07-13T15:53:19;6.63;;;2.10;;
54699;SDS011;40599;53.132;6.090;2023-07-13T15:55:46;6.10;;;1.83;;
54699;SDS011;40599;53.132;6.090;2023-07-13T15:58:12;9.65;;;2.17;;
54699;SDS011;40599;53.132;6.090;2023-07-13T16:00:40;6.43;;;2.00;;
54699;SDS011;40599;53.132;6.090;2023-07-13T16:03:06;6.87;;;2.50;;
54699;SDS011;40599;53.132;6.090;2023-07-13T16:05:33;9.60;;;2.50;;
54699;SDS011;40599;53.132;6.090;2023-07-13T16:07:59;7.43;;;2.38;;
54699;SDS011;40599;53.132;6.090;2023-07-13T16:10:34;9.67;;;2.10;;
54699;SDS011;40599;53.132;6.090;2023-07-13T16:13:02;7.50;;;2.30;;
54699;SDS011;40599;53.132;6.090;2023-07-13T16:15:30;9.50;;;2.87;;